sensor_id;sensor_type;location;lat;lon;timestamp;temperature;humidity
19180;DHT22;9722;48.754;8.868;2023-05-07T00:01:42;11.80;97.80
19180;DHT22;9722;48.754;8.868;2023-05-07T00:05:03;11.80;97.80
19180;DHT22;9722;48.754;8.868;2023-05-07T00:08:24;11.90;97.90
19180;DHT22;9722;48.754;8.868;2023-05-07T00:11:44;11.80;97.80
19180;DHT22;9722;48.754;8.868;2023-05-07T00:15:05;11.80;97.80
19180;DHT22;9722;48.754;8.868;2023-05-07T00:18:26;11.80;97.80
19180;DHT22;9722;48.754;8.868;2023-05-07T00:21:47;11.70;97.80
19180;DHT22;9722;48.754;8.868;2023-05-07T00:25:08;11.60;97.80
19180;DHT22;9722;48.754;8.868;2023-05-07T00:28:29;11.60;97.90
19180;DHT22;9722;48.754;8.868;2023-05-07T00:31:49;11.60;97.90
19180;DHT22;9722;48.754;8.868;2023-05-07T00:35:11;11.40;98.00
19180;DHT22;9722;48.754;8.868;2023-05-07T00:38:31;11.40;98.20
19180;DHT22;9722;48.754;8.868;2023-05-07T00:41:52;11.30;98.40
19180;DHT22;9722;48.754;8.868;2023-05-07T00:45:13;11.30;98.60
19180;DHT22;9722;48.754;8.868;2023-05-07T00:48:34;11.20;98.70
19180;DHT22;9722;48.754;8.868;2023-05-07T00:51:55;11.10;98.80
19180;DHT22;9722;48.754;8.868;2023-05-07T00:55:15;11.10;98.90
19180;DHT22;9722;48.754;8.868;2023-05-07T00:58:36;11.00;99.20
19180;DHT22;9722;48.754;8.868;2023-05-07T01:01:57;11.00;99.40
19180;DHT22;9722;48.754;8.868;2023-05-07T01:05:19;11.00;99.40
19180;DHT22;9722;48.754;8.868;2023-05-07T01:08:41;11.00;99.60
19180;DHT22;9722;48.754;8.868;2023-05-07T01:12:03;11.00;99.80
19180;DHT22;9722;48.754;8.868;2023-05-07T01:15:24;11.00;99.90
19180;DHT22;9722;48.754;8.868;2023-05-07T01:18:44;11.00;99.90
19180;DHT22;9722;48.754;8.868;2023-05-07T01:22:10;11.10;99.90
19180;DHT22;9722;48.754;8.868;2023-05-07T01:25:31;11.10;99.90
19180;DHT22;9722;48.754;8.868;2023-05-07T01:28:52;11.10;99.90
19180;DHT22;9722;48.754;8.868;2023-05-07T01:32:13;11.10;99.90
19180;DHT22;9722;48.754;8.868;2023-05-07T01:35:39;11.10;99.90
19180;DHT22;9722;48.754;8.868;2023-05-07T01:39:01;11.20;99.90
19180;DHT22;9722;48.754;8.868;2023-05-07T01:42:22;11.20;99.90
19180;DHT22;9722;48.754;8.868;2023-05-07T01:45:43;11.20;99.90
19180;DHT22;9722;48.754;8.868;2023-05-07T01:49:05;11.20;99.90
19180;DHT22;9722;48.754;8.868;2023-05-07T01:52:26;11.20;99.90
19180;DHT22;9722;48.754;8.868;2023-05-07T01:55:47;11.10;99.90
19180;DHT22;9722;48.754;8.868;2023-05-07T01:59:08;11.10;99.90
19180;DHT22;9722;48.754;8.868;2023-05-07T02:02:28;11.10;99.90
19180;DHT22;9722;48.754;8.868;2023-05-07T02:05:49;11.00;99.90
19180;DHT22;9722;48.754;8.868;2023-05-07T02:09:09;11.00;99.90
19180;DHT22;9722;48.754;8.868;2023-05-07T02:12:30;11.00;99.90
19180;DHT22;9722;48.754;8.868;2023-05-07T02:15:51;11.00;99.90
19180;DHT22;9722;48.754;8.868;2023-05-07T02:19:11;10.90;99.90
19180;DHT22;9722;48.754;8.868;2023-05-07T02:22:32;10.90;99.90
19180;DHT22;9722;48.754;8.868;2023-05-07T02:25:52;10.80;99.90
19180;DHT22;9722;48.754;8.868;2023-05-07T02:29:13;10.90;99.90
19180;DHT22;9722;48.754;8.868;2023-05-07T02:32:33;10.80;99.90
19180;DHT22;9722;48.754;8.868;2023-05-07T02:35:54;10.70;99.90
19180;DHT22;9722;48.754;8.868;2023-05-07T02:39:14;10.70;99.90
19180;DHT22;9722;48.754;8.868;2023-05-07T02:42:35;10.60;99.90
19180;DHT22;9722;48.754;8.868;2023-05-07T02:46:03;10.50;99.90
19180;DHT22;9722;48.754;8.868;2023-05-07T02:49:24;10.50;99.90
19180;DHT22;9722;48.754;8.868;2023-05-07T02:52:45;10.50;99.90
19180;DHT22;9722;48.754;8.868;2023-05-07T02:56:06;10.40;99.90
19180;DHT22;9722;48.754;8.868;2023-05-07T02:59:26;10.30;99.90
19180;DHT22;9722;48.754;8.868;2023-05-07T03:02:47;10.30;99.90
19180;DHT22;9722;48.754;8.868;2023-05-07T03:06:08;10.20;99.90
19180;DHT22;9722;48.754;8.868;2023-05-07T03:09:28;10.20;99.90
19180;DHT22;9722;48.754;8.868;2023-05-07T03:12:49;10.10;99.90
19180;DHT22;9722;48.754;8.868;2023-05-07T03:16:09;10.10;99.90
19180;DHT22;9722;48.754;8.868;2023-05-07T03:19:30;10.10;99.90
19180;DHT22;9722;48.754;8.868;2023-05-07T03:22:50;10.10;99.90
19180;DHT22;9722;48.754;8.868;2023-05-07T03:26:11;10.10;99.90
19180;DHT22;9722;48.754;8.868;2023-05-07T03:29:31;10.10;99.90
19180;DHT22;9722;48.754;8.868;2023-05-07T03:32:52;10.10;99.90
19180;DHT22;9722;48.754;8.868;2023-05-07T03:36:12;10.10;99.90
19180;DHT22;9722;48.754;8.868;2023-05-07T03:39:33;10.10;99.90
19180;DHT22;9722;48.754;8.868;2023-05-07T03:42:53;10.00;99.90
19180;DHT22;9722;48.754;8.868;2023-05-07T03:46:14;9.90;99.90
19180;DHT22;9722;48.754;8.868;2023-05-07T03:49:35;9.90;99.90
19180;DHT22;9722;48.754;8.868;2023-05-07T03:52:55;9.90;99.90
19180;DHT22;9722;48.754;8.868;2023-05-07T03:56:15;9.90;99.90
19180;DHT22;9722;48.754;8.868;2023-05-07T03:59:36;9.80;99.90
19180;DHT22;9722;48.754;8.868;2023-05-07T04:02:56;9.80;99.90
19180;DHT22;9722;48.754;8.868;2023-05-07T04:06:17;9.80;99.90
19180;DHT22;9722;48.754;8.868;2023-05-07T04:09:37;9.80;99.90
19180;DHT22;9722;48.754;8.868;2023-05-07T04:13:01;9.70;99.90
19180;DHT22;9722;48.754;8.868;2023-05-07T04:16:21;9.70;99.90
19180;DHT22;9722;48.754;8.868;2023-05-07T04:19:42;9.70;99.90
19180;DHT22;9722;48.754;8.868;2023-05-07T04:23:05;9.70;99.90
19180;DHT22;9722;48.754;8.868;2023-05-07T04:26:26;9.70;99.90
19180;DHT22;9722;48.754;8.868;2023-05-07T04:29:46;9.80;99.90
19180;DHT22;9722;48.754;8.868;2023-05-07T04:33:07;9.80;99.90
19180;DHT22;9722;48.754;8.868;2023-05-07T04:36:28;9.80;99.90
19180;DHT22;9722;48.754;8.868;2023-05-07T04:39:49;9.90;99.90
19180;DHT22;9722;48.754;8.868;2023-05-07T04:43:10;9.90;99.90
19180;DHT22;9722;48.754;8.868;2023-05-07T04:46:30;10.00;99.90
19180;DHT22;9722;48.754;8.868;2023-05-07T04:49:51;10.00;99.90
19180;DHT22;9722;48.754;8.868;2023-05-07T04:53:11;10.10;99.90
19180;DHT22;9722;48.754;8.868;2023-05-07T04:56:32;10.10;99.90
19180;DHT22;9722;48.754;8.868;2023-05-07T04:59:53;10.20;99.90
19180;DHT22;9722;48.754;8.868;2023-05-07T05:03:13;10.30;99.90
19180;DHT22;9722;48.754;8.868;2023-05-07T05:06:34;10.40;99.90
19180;DHT22;9722;48.754;8.868;2023-05-07T05:09:55;10.50;99.90
19180;DHT22;9722;48.754;8.868;2023-05-07T05:13:15;10.70;99.90
19180;DHT22;9722;48.754;8.868;2023-05-07T05:16:36;10.90;99.90
19180;DHT22;9722;48.754;8.868;2023-05-07T05:19:56;11.20;99.90
19180;DHT22;9722;48.754;8.868;2023-05-07T05:23:17;11.70;99.90
19180;DHT22;9722;48.754;8.868;2023-05-07T05:26:37;12.00;99.90
19180;DHT22;9722;48.754;8.868;2023-05-07T05:29:58;12.30;99.90
19180;DHT22;9722;48.754;8.868;2023-05-07T05:33:19;12.60;99.90
19180;DHT22;9722;48.754;8.868;2023-05-07T05:36:39;12.90;99.90
19180;DHT22;9722;48.754;8.868;2023-05-07T05:40:00;13.20;99.30
19180;DHT22;9722;48.754;8.868;2023-05-07T05:43:20;13.60;98.80
19180;DHT22;9722;48.754;8.868;2023-05-07T05:46:41;13.90;98.30
19180;DHT22;9722;48.754;8.868;2023-05-07T05:50:01;14.30;97.00
19180;DHT22;9722;48.754;8.868;2023-05-07T05:53:22;14.50;96.00
19180;DHT22;9722;48.754;8.868;2023-05-07T05:56:42;14.80;95.60
19180;DHT22;9722;48.754;8.868;2023-05-07T06:00:04;15.20;94.50
19180;DHT22;9722;48.754;8.868;2023-05-07T06:03:24;15.60;93.50
19180;DHT22;9722;48.754;8.868;2023-05-07T06:06:45;15.90;92.50
19180;DHT22;9722;48.754;8.868;2023-05-07T06:10:06;16.00;91.90
19180;DHT22;9722;48.754;8.868;2023-05-07T06:13:26;16.10;91.40
19180;DHT22;9722;48.754;8.868;2023-05-07T06:16:47;16.20;91.00
19180;DHT22;9722;48.754;8.868;2023-05-07T06:20:08;16.00;90.80
19180;DHT22;9722;48.754;8.868;2023-05-07T06:23:28;15.90;90.90
19180;DHT22;9722;48.754;8.868;2023-05-07T06:26:49;15.80;90.90
19180;DHT22;9722;48.754;8.868;2023-05-07T06:30:10;15.60;90.90
19180;DHT22;9722;48.754;8.868;2023-05-07T06:33:30;15.70;91.40
19180;DHT22;9722;48.754;8.868;2023-05-07T06:36:51;16.20;90.90
19180;DHT22;9722;48.754;8.868;2023-05-07T06:40:11;17.00;89.00
19180;DHT22;9722;48.754;8.868;2023-05-07T06:43:32;17.80;85.40
19180;DHT22;9722;48.754;8.868;2023-05-07T06:46:53;18.50;81.80
19180;DHT22;9722;48.754;8.868;2023-05-07T06:50:13;19.00;78.20
19180;DHT22;9722;48.754;8.868;2023-05-07T06:53:36;19.40;75.40
19180;DHT22;9722;48.754;8.868;2023-05-07T06:56:56;19.80;73.30
19180;DHT22;9722;48.754;8.868;2023-05-07T07:00:17;20.40;70.60
19180;DHT22;9722;48.754;8.868;2023-05-07T07:03:38;20.70;67.70
19180;DHT22;9722;48.754;8.868;2023-05-07T07:06:58;21.10;66.40
19180;DHT22;9722;48.754;8.868;2023-05-07T07:10:19;21.60;65.10
19180;DHT22;9722;48.754;8.868;2023-05-07T07:13:40;22.00;64.10
19180;DHT22;9722;48.754;8.868;2023-05-07T07:17:01;22.40;62.90
19180;DHT22;9722;48.754;8.868;2023-05-07T07:20:21;22.70;61.60
19180;DHT22;9722;48.754;8.868;2023-05-07T07:23:42;23.00;60.90
19180;DHT22;9722;48.754;8.868;2023-05-07T07:27:02;23.20;60.20
19180;DHT22;9722;48.754;8.868;2023-05-07T07:30:23;23.30;59.50
19180;DHT22;9722;48.754;8.868;2023-05-07T07:33:43;23.20;59.40
19180;DHT22;9722;48.754;8.868;2023-05-07T07:37:04;23.10;59.50
19180;DHT22;9722;48.754;8.868;2023-05-07T07:40:26;22.80;59.70
19180;DHT22;9722;48.754;8.868;2023-05-07T07:43:46;22.50;60.20
19180;DHT22;9722;48.754;8.868;2023-05-07T07:47:07;22.40;60.30
19180;DHT22;9722;48.754;8.868;2023-05-07T07:50:28;22.40;60.30
19180;DHT22;9722;48.754;8.868;2023-05-07T07:53:48;22.70;59.90
19180;DHT22;9722;48.754;8.868;2023-05-07T07:57:09;23.10;59.30
19180;DHT22;9722;48.754;8.868;2023-05-07T08:00:29;23.80;58.40
19180;DHT22;9722;48.754;8.868;2023-05-07T08:03:50;24.80;57.50
19180;DHT22;9722;48.754;8.868;2023-05-07T08:07:10;25.80;55.50
19180;DHT22;9722;48.754;8.868;2023-05-07T08:10:31;26.40;53.80
19180;DHT22;9722;48.754;8.868;2023-05-07T08:13:55;26.80;52.90
19180;DHT22;9722;48.754;8.868;2023-05-07T08:17:16;26.80;51.90
19180;DHT22;9722;48.754;8.868;2023-05-07T08:20:36;26.50;51.60
19180;DHT22;9722;48.754;8.868;2023-05-07T08:23:59;26.40;51.70
19180;DHT22;9722;48.754;8.868;2023-05-07T08:27:20;26.90;51.30
19180;DHT22;9722;48.754;8.868;2023-05-07T08:30:40;27.40;50.50
19180;DHT22;9722;48.754;8.868;2023-05-07T08:34:01;27.70;49.60
19180;DHT22;9722;48.754;8.868;2023-05-07T08:37:21;28.20;48.90
19180;DHT22;9722;48.754;8.868;2023-05-07T08:40:42;28.80;48.00
19180;DHT22;9722;48.754;8.868;2023-05-07T08:44:03;29.10;47.40
19180;DHT22;9722;48.754;8.868;2023-05-07T08:47:30;29.40;47.40
19180;DHT22;9722;48.754;8.868;2023-05-07T08:50:53;29.90;45.50
19180;DHT22;9722;48.754;8.868;2023-05-07T08:54:16;30.30;44.60
19180;DHT22;9722;48.754;8.868;2023-05-07T08:57:37;30.50;44.00
19180;DHT22;9722;48.754;8.868;2023-05-07T09:00:58;30.70;43.70
19180;DHT22;9722;48.754;8.868;2023-05-07T09:04:20;31.20;43.40
19180;DHT22;9722;48.754;8.868;2023-05-07T09:07:40;31.90;42.40
19180;DHT22;9722;48.754;8.868;2023-05-07T09:11:02;32.40;41.80
19180;DHT22;9722;48.754;8.868;2023-05-07T09:14:22;32.90;41.90
19180;DHT22;9722;48.754;8.868;2023-05-07T09:17:43;33.50;40.50
19180;DHT22;9722;48.754;8.868;2023-05-07T09:21:04;33.90;39.70
19180;DHT22;9722;48.754;8.868;2023-05-07T09:24:24;34.30;39.90
19180;DHT22;9722;48.754;8.868;2023-05-07T09:27:45;34.60;38.30
19180;DHT22;9722;48.754;8.868;2023-05-07T09:31:05;35.00;38.00
19180;DHT22;9722;48.754;8.868;2023-05-07T09:34:26;34.90;37.50
19180;DHT22;9722;48.754;8.868;2023-05-07T09:37:46;34.00;38.00
19180;DHT22;9722;48.754;8.868;2023-05-07T09:41:11;32.70;38.90
19180;DHT22;9722;48.754;8.868;2023-05-07T09:44:33;31.50;40.30
19180;DHT22;9722;48.754;8.868;2023-05-07T09:47:56;30.50;42.00
19180;DHT22;9722;48.754;8.868;2023-05-07T09:51:28;29.70;43.00
19180;DHT22;9722;48.754;8.868;2023-05-07T09:54:50;29.60;43.80
19180;DHT22;9722;48.754;8.868;2023-05-07T09:58:12;30.50;43.40
19180;DHT22;9722;48.754;8.868;2023-05-07T10:01:36;31.80;41.70
19180;DHT22;9722;48.754;8.868;2023-05-07T10:04:57;32.90;41.20
19180;DHT22;9722;48.754;8.868;2023-05-07T10:08:20;33.90;40.20
19180;DHT22;9722;48.754;8.868;2023-05-07T10:11:41;34.10;39.90
19180;DHT22;9722;48.754;8.868;2023-05-07T10:15:10;33.50;39.80
19180;DHT22;9722;48.754;8.868;2023-05-07T10:18:31;32.80;40.40
19180;DHT22;9722;48.754;8.868;2023-05-07T10:22:01;32.60;40.40
19180;DHT22;9722;48.754;8.868;2023-05-07T10:25:30;33.00;40.20
19180;DHT22;9722;48.754;8.868;2023-05-07T10:28:56;33.90;38.80
19180;DHT22;9722;48.754;8.868;2023-05-07T10:32:40;34.90;37.30
19180;DHT22;9722;48.754;8.868;2023-05-07T10:36:03;35.90;35.40
19180;DHT22;9722;48.754;8.868;2023-05-07T10:39:25;36.40;35.80
19180;DHT22;9722;48.754;8.868;2023-05-07T10:43:12;37.00;35.30
19180;DHT22;9722;48.754;8.868;2023-05-07T10:46:32;37.10;33.90
19180;DHT22;9722;48.754;8.868;2023-05-07T10:56:43;32.90;37.30
19180;DHT22;9722;48.754;8.868;2023-05-07T11:04:13;31.00;39.90
19180;DHT22;9722;48.754;8.868;2023-05-07T11:07:34;30.40;40.90
19180;DHT22;9722;48.754;8.868;2023-05-07T11:10:56;29.90;42.20
19180;DHT22;9722;48.754;8.868;2023-05-07T11:14:49;29.30;43.10
19180;DHT22;9722;48.754;8.868;2023-05-07T11:18:16;28.80;44.50
19180;DHT22;9722;48.754;8.868;2023-05-07T11:21:39;28.20;45.80
19180;DHT22;9722;48.754;8.868;2023-05-07T11:25:01;27.70;47.20
19180;DHT22;9722;48.754;8.868;2023-05-07T11:28:22;27.20;48.60
19180;DHT22;9722;48.754;8.868;2023-05-07T11:31:43;26.80;49.90
19180;DHT22;9722;48.754;8.868;2023-05-07T11:35:04;26.30;51.10
19180;DHT22;9722;48.754;8.868;2023-05-07T11:38:25;25.80;52.30
19180;DHT22;9722;48.754;8.868;2023-05-07T11:41:45;25.30;53.90
19180;DHT22;9722;48.754;8.868;2023-05-07T11:45:07;24.90;56.20
19180;DHT22;9722;48.754;8.868;2023-05-07T11:48:28;24.40;57.20
19180;DHT22;9722;48.754;8.868;2023-05-07T11:51:48;24.00;58.60
19180;DHT22;9722;48.754;8.868;2023-05-07T11:55:09;23.60;60.30
19180;DHT22;9722;48.754;8.868;2023-05-07T11:58:29;23.20;62.50
19180;DHT22;9722;48.754;8.868;2023-05-07T12:01:50;22.80;63.70
19180;DHT22;9722;48.754;8.868;2023-05-07T12:05:10;22.40;65.20
19180;DHT22;9722;48.754;8.868;2023-05-07T12:08:31;22.20;67.40
19180;DHT22;9722;48.754;8.868;2023-05-07T12:11:52;21.90;69.10
19180;DHT22;9722;48.754;8.868;2023-05-07T12:15:16;21.80;69.00
19180;DHT22;9722;48.754;8.868;2023-05-07T12:18:37;21.50;71.50
19180;DHT22;9722;48.754;8.868;2023-05-07T12:21:58;21.10;73.90
19180;DHT22;9722;48.754;8.868;2023-05-07T12:25:19;20.50;75.90
19180;DHT22;9722;48.754;8.868;2023-05-07T12:28:41;20.10;78.50
19180;DHT22;9722;48.754;8.868;2023-05-07T12:32:01;19.80;82.00
19180;DHT22;9722;48.754;8.868;2023-05-07T12:35:29;19.70;85.10
19180;DHT22;9722;48.754;8.868;2023-05-07T12:38:50;19.80;87.50
19180;DHT22;9722;48.754;8.868;2023-05-07T12:42:15;19.80;87.60
19180;DHT22;9722;48.754;8.868;2023-05-07T12:45:37;19.80;89.10
19180;DHT22;9722;48.754;8.868;2023-05-07T12:49:01;19.90;90.10
19180;DHT22;9722;48.754;8.868;2023-05-07T12:52:21;19.90;90.40
19180;DHT22;9722;48.754;8.868;2023-05-07T12:55:44;19.90;90.00
19180;DHT22;9722;48.754;8.868;2023-05-07T12:59:05;19.90;90.20
19180;DHT22;9722;48.754;8.868;2023-05-07T13:02:33;19.70;90.30
19180;DHT22;9722;48.754;8.868;2023-05-07T13:05:55;19.40;90.10
19180;DHT22;9722;48.754;8.868;2023-05-07T13:09:16;19.20;90.40
19180;DHT22;9722;48.754;8.868;2023-05-07T13:12:36;19.10;90.80
19180;DHT22;9722;48.754;8.868;2023-05-07T13:15:57;19.00;91.40
19180;DHT22;9722;48.754;8.868;2023-05-07T13:19:17;18.90;92.10
19180;DHT22;9722;48.754;8.868;2023-05-07T13:22:39;18.70;92.40
19180;DHT22;9722;48.754;8.868;2023-05-07T13:25:59;18.60;91.20
19180;DHT22;9722;48.754;8.868;2023-05-07T13:29:20;18.30;90.30
19180;DHT22;9722;48.754;8.868;2023-05-07T13:32:45;18.10;90.40
19180;DHT22;9722;48.754;8.868;2023-05-07T13:36:08;17.90;90.50
19180;DHT22;9722;48.754;8.868;2023-05-07T13:39:28;17.60;90.90
19180;DHT22;9722;48.754;8.868;2023-05-07T13:42:49;17.40;91.50
19180;DHT22;9722;48.754;8.868;2023-05-07T13:46:09;17.30;91.80
19180;DHT22;9722;48.754;8.868;2023-05-07T13:49:30;17.20;92.00
19180;DHT22;9722;48.754;8.868;2023-05-07T13:52:51;17.10;92.20
19180;DHT22;9722;48.754;8.868;2023-05-07T13:56:11;17.00;92.40
19180;DHT22;9722;48.754;8.868;2023-05-07T13:59:31;16.90;93.00
19180;DHT22;9722;48.754;8.868;2023-05-07T14:02:52;16.90;93.20
19180;DHT22;9722;48.754;8.868;2023-05-07T14:06:13;16.80;93.90
19180;DHT22;9722;48.754;8.868;2023-05-07T14:09:33;16.70;94.50
19180;DHT22;9722;48.754;8.868;2023-05-07T14:12:54;16.60;95.10
19180;DHT22;9722;48.754;8.868;2023-05-07T14:16:15;16.60;95.60
19180;DHT22;9722;48.754;8.868;2023-05-07T14:19:35;16.70;96.00
19180;DHT22;9722;48.754;8.868;2023-05-07T14:22:56;16.80;96.50
19180;DHT22;9722;48.754;8.868;2023-05-07T14:26:16;16.80;96.70
19180;DHT22;9722;48.754;8.868;2023-05-07T14:29:37;16.90;97.00
19180;DHT22;9722;48.754;8.868;2023-05-07T14:32:58;16.90;97.10
19180;DHT22;9722;48.754;8.868;2023-05-07T14:36:18;16.90;97.30
19180;DHT22;9722;48.754;8.868;2023-05-07T14:39:43;16.90;97.50
19180;DHT22;9722;48.754;8.868;2023-05-07T14:43:03;16.90;97.60
19180;DHT22;9722;48.754;8.868;2023-05-07T14:46:24;17.00;98.00
19180;DHT22;9722;48.754;8.868;2023-05-07T14:49:44;17.00;98.30
19180;DHT22;9722;48.754;8.868;2023-05-07T14:53:05;17.10;98.20
19180;DHT22;9722;48.754;8.868;2023-05-07T14:56:25;17.20;98.20
19180;DHT22;9722;48.754;8.868;2023-05-07T14:59:46;17.30;98.20
19180;DHT22;9722;48.754;8.868;2023-05-07T15:03:08;17.40;98.20
19180;DHT22;9722;48.754;8.868;2023-05-07T15:06:30;17.40;97.90
19180;DHT22;9722;48.754;8.868;2023-05-07T15:09:51;17.50;97.70
19180;DHT22;9722;48.754;8.868;2023-05-07T15:13:12;17.50;98.00
19180;DHT22;9722;48.754;8.868;2023-05-07T15:16:32;17.70;97.70
19180;DHT22;9722;48.754;8.868;2023-05-07T15:19:54;17.80;97.80
19180;DHT22;9722;48.754;8.868;2023-05-07T15:23:15;17.80;97.20
19180;DHT22;9722;48.754;8.868;2023-05-07T15:26:35;17.90;97.30
19180;DHT22;9722;48.754;8.868;2023-05-07T15:29:57;18.00;97.50
19180;DHT22;9722;48.754;8.868;2023-05-07T15:33:17;18.20;97.20
19180;DHT22;9722;48.754;8.868;2023-05-07T15:36:38;18.30;96.80
19180;DHT22;9722;48.754;8.868;2023-05-07T15:39:58;18.50;96.30
19180;DHT22;9722;48.754;8.868;2023-05-07T15:43:19;18.70;96.00
19180;DHT22;9722;48.754;8.868;2023-05-07T15:46:39;18.90;96.50
19180;DHT22;9722;48.754;8.868;2023-05-07T15:50:00;19.10;96.30
19180;DHT22;9722;48.754;8.868;2023-05-07T15:53:21;19.30;95.90
19180;DHT22;9722;48.754;8.868;2023-05-07T15:56:41;19.40;95.60
19180;DHT22;9722;48.754;8.868;2023-05-07T16:00:02;19.60;95.20
19180;DHT22;9722;48.754;8.868;2023-05-07T16:03:29;19.70;95.10
19180;DHT22;9722;48.754;8.868;2023-05-07T16:06:50;19.80;94.20
19180;DHT22;9722;48.754;8.868;2023-05-07T16:10:10;19.80;93.90
19180;DHT22;9722;48.754;8.868;2023-05-07T16:13:31;19.90;94.30
19180;DHT22;9722;48.754;8.868;2023-05-07T16:16:52;19.90;93.90
19180;DHT22;9722;48.754;8.868;2023-05-07T16:20:13;19.90;93.40
19180;DHT22;9722;48.754;8.868;2023-05-07T16:23:34;19.90;93.70
19180;DHT22;9722;48.754;8.868;2023-05-07T16:26:55;19.90;93.80
19180;DHT22;9722;48.754;8.868;2023-05-07T16:30:16;19.90;93.90
19180;DHT22;9722;48.754;8.868;2023-05-07T16:33:36;20.00;93.70
19180;DHT22;9722;48.754;8.868;2023-05-07T16:36:57;19.90;93.40
19180;DHT22;9722;48.754;8.868;2023-05-07T16:40:17;19.90;93.70
19180;DHT22;9722;48.754;8.868;2023-05-07T16:43:38;19.90;93.90
19180;DHT22;9722;48.754;8.868;2023-05-07T16:46:59;19.90;94.20
19180;DHT22;9722;48.754;8.868;2023-05-07T16:50:19;19.80;93.60
19180;DHT22;9722;48.754;8.868;2023-05-07T16:53:40;19.80;93.70
19180;DHT22;9722;48.754;8.868;2023-05-07T16:57:00;19.70;93.80
19180;DHT22;9722;48.754;8.868;2023-05-07T17:00:21;19.60;93.90
19180;DHT22;9722;48.754;8.868;2023-05-07T17:03:41;19.50;93.90
19180;DHT22;9722;48.754;8.868;2023-05-07T17:07:02;19.30;94.00
19180;DHT22;9722;48.754;8.868;2023-05-07T17:10:25;19.20;94.00
19180;DHT22;9722;48.754;8.868;2023-05-07T17:13:46;19.10;94.10
19180;DHT22;9722;48.754;8.868;2023-05-07T17:17:06;19.00;94.40
19180;DHT22;9722;48.754;8.868;2023-05-07T17:20:27;18.80;94.50
19180;DHT22;9722;48.754;8.868;2023-05-07T17:23:47;18.80;95.00
19180;DHT22;9722;48.754;8.868;2023-05-07T17:27:08;18.60;95.00
19180;DHT22;9722;48.754;8.868;2023-05-07T17:30:28;18.60;95.40
19180;DHT22;9722;48.754;8.868;2023-05-07T17:33:49;18.50;95.90
19180;DHT22;9722;48.754;8.868;2023-05-07T17:37:09;18.40;95.90
19180;DHT22;9722;48.754;8.868;2023-05-07T17:40:30;18.30;96.10
19180;DHT22;9722;48.754;8.868;2023-05-07T17:43:50;18.20;96.40
19180;DHT22;9722;48.754;8.868;2023-05-07T17:47:11;18.10;96.50
19180;DHT22;9722;48.754;8.868;2023-05-07T17:50:33;18.00;96.60
19180;DHT22;9722;48.754;8.868;2023-05-07T17:53:54;17.90;96.90
19180;DHT22;9722;48.754;8.868;2023-05-07T17:57:16;17.80;97.20
19180;DHT22;9722;48.754;8.868;2023-05-07T18:00:37;17.70;97.50
19180;DHT22;9722;48.754;8.868;2023-05-07T18:03:57;17.70;97.70
19180;DHT22;9722;48.754;8.868;2023-05-07T18:07:18;17.60;98.30
19180;DHT22;9722;48.754;8.868;2023-05-07T18:10:38;17.50;98.10
19180;DHT22;9722;48.754;8.868;2023-05-07T18:13:59;17.50;98.20
19180;DHT22;9722;48.754;8.868;2023-05-07T18:17:20;17.50;98.50
19180;DHT22;9722;48.754;8.868;2023-05-07T18:20:48;17.40;98.70
19180;DHT22;9722;48.754;8.868;2023-05-07T18:24:10;17.40;99.30
19180;DHT22;9722;48.754;8.868;2023-05-07T18:27:30;17.30;99.40
19180;DHT22;9722;48.754;8.868;2023-05-07T18:30:51;17.30;99.60
19180;DHT22;9722;48.754;8.868;2023-05-07T18:34:11;17.20;99.60
19180;DHT22;9722;48.754;8.868;2023-05-07T18:37:33;17.10;99.70
19180;DHT22;9722;48.754;8.868;2023-05-07T18:41:02;17.00;99.90
19180;DHT22;9722;48.754;8.868;2023-05-07T18:44:23;17.00;99.90
19180;DHT22;9722;48.754;8.868;2023-05-07T18:47:44;16.90;99.90
19180;DHT22;9722;48.754;8.868;2023-05-07T18:51:05;16.90;99.90
19180;DHT22;9722;48.754;8.868;2023-05-07T18:54:27;16.80;99.90
19180;DHT22;9722;48.754;8.868;2023-05-07T18:57:48;16.80;99.90
19180;DHT22;9722;48.754;8.868;2023-05-07T19:01:08;16.80;99.90
19180;DHT22;9722;48.754;8.868;2023-05-07T19:04:30;16.70;99.90
19180;DHT22;9722;48.754;8.868;2023-05-07T19:07:50;16.70;99.90
19180;DHT22;9722;48.754;8.868;2023-05-07T19:11:11;16.60;99.90
19180;DHT22;9722;48.754;8.868;2023-05-07T19:14:31;16.60;99.90
19180;DHT22;9722;48.754;8.868;2023-05-07T19:17:52;16.60;99.90
19180;DHT22;9722;48.754;8.868;2023-05-07T19:21:13;16.60;99.90
19180;DHT22;9722;48.754;8.868;2023-05-07T19:24:34;16.50;99.90
19180;DHT22;9722;48.754;8.868;2023-05-07T19:27:56;16.40;99.90
19180;DHT22;9722;48.754;8.868;2023-05-07T19:31:18;16.40;99.90
19180;DHT22;9722;48.754;8.868;2023-05-07T19:34:39;16.40;99.90
19180;DHT22;9722;48.754;8.868;2023-05-07T19:38:00;16.30;99.90
19180;DHT22;9722;48.754;8.868;2023-05-07T19:41:21;16.40;99.90
19180;DHT22;9722;48.754;8.868;2023-05-07T19:44:42;16.30;99.90
19180;DHT22;9722;48.754;8.868;2023-05-07T19:48:02;16.30;99.90
19180;DHT22;9722;48.754;8.868;2023-05-07T19:51:23;16.30;99.90
19180;DHT22;9722;48.754;8.868;2023-05-07T19:54:43;16.30;99.90
19180;DHT22;9722;48.754;8.868;2023-05-07T19:58:04;16.20;99.90
19180;DHT22;9722;48.754;8.868;2023-05-07T20:01:24;16.20;99.90
19180;DHT22;9722;48.754;8.868;2023-05-07T20:04:45;16.10;99.90
19180;DHT22;9722;48.754;8.868;2023-05-07T20:08:06;16.10;99.90
19180;DHT22;9722;48.754;8.868;2023-05-07T20:11:27;16.10;99.90
19180;DHT22;9722;48.754;8.868;2023-05-07T20:14:48;16.10;99.90
19180;DHT22;9722;48.754;8.868;2023-05-07T20:18:09;16.10;99.90
19180;DHT22;9722;48.754;8.868;2023-05-07T20:21:29;16.00;99.90
19180;DHT22;9722;48.754;8.868;2023-05-07T20:24:50;16.00;99.90
19180;DHT22;9722;48.754;8.868;2023-05-07T20:28:11;15.90;99.90
19180;DHT22;9722;48.754;8.868;2023-05-07T20:31:31;15.80;99.90
19180;DHT22;9722;48.754;8.868;2023-05-07T20:34:54;15.80;99.90
19180;DHT22;9722;48.754;8.868;2023-05-07T20:38:15;15.70;99.90
19180;DHT22;9722;48.754;8.868;2023-05-07T20:41:35;15.70;99.90
19180;DHT22;9722;48.754;8.868;2023-05-07T20:44:56;15.70;99.90
19180;DHT22;9722;48.754;8.868;2023-05-07T20:48:16;15.70;99.90
19180;DHT22;9722;48.754;8.868;2023-05-07T20:51:37;15.60;99.90
19180;DHT22;9722;48.754;8.868;2023-05-07T20:54:57;15.70;99.90
19180;DHT22;9722;48.754;8.868;2023-05-07T20:58:18;15.60;99.90
19180;DHT22;9722;48.754;8.868;2023-05-07T21:01:38;15.60;99.90
19180;DHT22;9722;48.754;8.868;2023-05-07T21:05:01;15.60;99.90
19180;DHT22;9722;48.754;8.868;2023-05-07T21:08:22;15.60;99.90
19180;DHT22;9722;48.754;8.868;2023-05-07T21:11:42;15.70;99.90
19180;DHT22;9722;48.754;8.868;2023-05-07T21:15:03;15.60;99.90
19180;DHT22;9722;48.754;8.868;2023-05-07T21:18:24;15.70;99.90
19180;DHT22;9722;48.754;8.868;2023-05-07T21:21:45;15.70;99.90
19180;DHT22;9722;48.754;8.868;2023-05-07T21:25:06;15.70;99.90
19180;DHT22;9722;48.754;8.868;2023-05-07T21:28:27;15.70;99.90
19180;DHT22;9722;48.754;8.868;2023-05-07T21:31:48;15.70;99.90
19180;DHT22;9722;48.754;8.868;2023-05-07T21:35:08;15.70;99.90
19180;DHT22;9722;48.754;8.868;2023-05-07T21:38:29;15.70;99.90
19180;DHT22;9722;48.754;8.868;2023-05-07T21:41:49;15.70;99.90
19180;DHT22;9722;48.754;8.868;2023-05-07T21:45:10;15.70;99.90